Time;durP1;ratioP1;P1;durP2;ratioP2;P2;SDS_P1;SDS_P2;PMS_P1;PMS_P2;Temp;Humidity;BMP_temperature;BMP_pressure;BME280_temperature;BME280_humidity;BME280_pressure;Samples;Min_cycle;Max_cycle;Signal;HPM_P1;HPM_P2
2023/05/22 00:00:21;;;;;;;30.38;22.75;;;;;;;15.23;100.00;101405.19;5032739;28;20071;-77
2023/05/22 00:02:47;;;;;;;32.95;23.90;;;;;;;15.21;100.00;101405.34;5025504;28;20055;-77
2023/05/22 00:05:19;;;;;;;26.65;22.90;;;;;;;15.14;100.00;101401.50;5031220;28;20049;-77
2023/05/22 00:07:47;;;;;;;28.05;24.35;;;;;;;15.07;100.00;101391.53;5031023;28;20504;-76
2023/05/22 00:10:14;;;;;;;30.83;24.60;;;;;;;15.07;100.00;101391.53;5032046;28;20025;-76
2023/05/22 00:12:41;;;;;;;37.20;24.08;;;;;;;15.05;100.00;101387.22;5012193;28;20402;-75
2023/05/22 00:15:07;;;;;;;30.13;23.95;;;;;;;15.05;100.00;101389.03;5031657;28;20025;-75
2023/05/22 00:17:34;;;;;;;27.67;24.52;;;;;;;15.01;100.00;101390.25;5029698;28;20057;-76
2023/05/22 00:20:09;;;;;;;30.20;25.88;;;;;;;14.90;100.00;101395.63;5026801;28;20359;-76
2023/05/22 00:22:38;;;;;;;30.20;25.60;;;;;;;14.87;100.00;101391.41;5031847;28;20022;-76
2023/05/22 00:25:04;;;;;;;31.13;25.58;;;;;;;14.86;100.00;101394.19;5027951;28;20029;-76
2023/05/22 00:27:29;;;;;;;28.33;24.30;;;;;;;14.88;100.00;101392.25;5030210;28;20096;-76
2023/05/22 00:29:55;;;;;;;29.33;25.88;;;;;;;14.79;100.00;101400.94;5031676;28;20164;-76
2023/05/22 00:32:22;;;;;;;31.10;24.30;;;;;;;14.83;100.00;101391.81;5030544;28;20032;-75
2023/05/22 00:34:47;;;;;;;31.48;24.58;;;;;;;14.81;100.00;101389.28;5028481;28;20036;-75
2023/05/22 00:37:13;;;;;;;31.27;24.92;;;;;;;14.74;100.00;101393.38;5025318;28;20029;-75
2023/05/22 00:39:38;;;;;;;31.13;24.33;;;;;;;14.73;100.00;101379.28;5029354;28;20478;-75
2023/05/22 00:42:04;;;;;;;28.80;24.85;;;;;;;14.74;100.00;101378.31;5028588;28;20022;-75
2023/05/22 00:44:29;;;;;;;34.13;25.33;;;;;;;14.65;100.00;101380.91;5031364;28;20031;-76
2023/05/22 00:46:55;;;;;;;30.83;24.48;;;;;;;14.70;100.00;101384.00;5030258;28;20061;-76
2023/05/22 00:49:21;;;;;;;32.28;24.65;;;;;;;14.63;100.00;101385.50;5030818;28;20474;-76
2023/05/22 00:51:46;;;;;;;31.02;25.52;;;;;;;14.63;100.00;101388.13;5044177;28;20025;-76
2023/05/22 00:54:12;;;;;;;29.08;23.92;;;;;;;14.64;100.00;101384.53;5029855;28;20053;-76
2023/05/22 00:56:39;;;;;;;31.25;24.80;;;;;;;14.58;100.00;101385.03;5027636;28;20108;-76
2023/05/22 00:59:05;;;;;;;28.00;24.77;;;;;;;14.57;100.00;101378.88;5030684;28;20398;-76
2023/05/22 01:01:32;;;;;;;27.70;23.85;;;;;;;14.54;100.00;101386.25;5032128;28;20087;-76
2023/05/22 01:04:00;;;;;;;29.65;24.75;;;;;;;14.55;100.00;101385.28;5031928;28;20049;-76
2023/05/22 01:06:26;;;;;;;29.92;25.00;;;;;;;14.53;100.00;101392.50;5029146;28;20410;-76
2023/05/22 01:08:52;;;;;;;30.42;24.63;;;;;;;14.47;100.00;101395.66;5047001;28;20022;-76
2023/05/22 01:11:27;;;;;;;29.65;25.08;;;;;;;14.42;100.00;101390.72;5029701;28;20033;-77
2023/05/22 01:13:55;;;;;;;31.50;25.48;;;;;;;14.46;100.00;101386.03;5027213;28;20088;-77
2023/05/22 01:16:38;;;;;;;32.28;25.63;;;;;;;14.37;100.00;101375.19;5045979;28;20444;-77
2023/05/22 01:19:22;;;;;;;30.50;24.92;;;;;;;14.38;100.00;101392.75;5011664;28;20049;-77
2023/05/22 01:22:06;;;;;;;30.00;24.75;;;;;;;14.34;100.00;101399.25;5011181;28;20033;-77
2023/05/22 01:25:07;;;;;;;30.02;24.20;;;;;;;14.33;100.00;101386.97;5030402;28;20121;-77
2023/05/22 01:27:54;;;;;;;28.88;24.05;;;;;;;14.31;100.00;101388.91;5017242;28;20084;-77
2023/05/22 01:30:44;;;;;;;32.58;25.30;;;;;;;14.30;100.00;101387.22;5017805;28;20314;-77
2023/05/22 01:33:15;;;;;;;31.23;24.55;;;;;;;14.26;100.00;101395.56;5027599;28;20025;-77
2023/05/22 01:35:43;;;;;;;33.25;25.40;;;;;;;14.27;100.00;101379.53;5029135;28;20425;-77
2023/05/22 01:38:10;;;;;;;32.83;25.63;;;;;;;14.13;100.00;101390.41;5028533;28;20025;-77
2023/05/22 01:40:36;;;;;;;31.20;25.15;;;;;;;14.16;100.00;101384.88;5028648;28;20145;-76
2023/05/22 01:43:01;;;;;;;34.42;26.13;;;;;;;14.14;100.00;101381.50;5042888;28;20073;-76
2023/05/22 01:45:32;;;;;;;32.88;25.45;;;;;;;14.11;100.00;101387.03;5030270;28;20025;-75
2023/05/22 01:48:00;;;;;;;35.35;25.38;;;;;;;14.02;100.00;101382.50;5028273;28;20061;-76
2023/05/22 01:50:26;;;;;;;30.17;25.30;;;;;;;14.02;100.00;101379.84;5012412;28;20025;-75
2023/05/22 01:53:21;;;;;;;31.92;25.45;;;;;;;14.00;100.00;101389.69;5029807;28;20404;-77
2023/05/22 01:56:05;;;;;;;33.08;26.77;;;;;;;13.97;100.00;101376.72;5028539;28;20029;-77
2023/05/22 01:58:57;;;;;;;33.35;26.08;;;;;;;13.93;100.00;101372.63;5030690;28;20029;-77
2023/05/22 02:01:28;;;;;;;34.58;27.85;;;;;;;13.89;100.00;101371.19;5030467;28;20030;-77
2023/05/22 02:03:56;;;;;;;34.65;26.10;;;;;;;13.84;100.00;101376.00;5029015;28;20377;-77
2023/05/22 02:06:27;;;;;;;32.70;26.50;;;;;;;13.84;100.00;101379.50;5029993;28;20104;-77
2023/05/22 02:08:53;;;;;;;35.13;27.40;;;;;;;13.82;100.00;101373.47;5028573;28;20030;-77
2023/05/22 02:11:21;;;;;;;34.45;27.17;;;;;;;13.84;100.00;101373.34;5029345;28;20025;-77
2023/05/22 02:13:47;;;;;;;36.72;26.92;;;;;;;13.83;100.00;101371.69;5029343;28;20040;-76
2023/05/22 02:16:13;;;;;;;32.10;26.58;;;;;;;13.80;100.00;101372.75;5029232;28;20017;-77
2023/05/22 02:18:40;;;;;;;37.22;27.10;;;;;;;13.79;100.00;101366.63;5029488;28;20025;-77
2023/05/22 02:21:07;;;;;;;36.20;27.40;;;;;;;13.70;100.00;101364.72;5027219;28;20051;-76
2023/05/22 02:23:33;;;;;;;31.77;25.98;;;;;;;13.69;100.00;101378.91;5021604;28;20029;-78
2023/05/22 02:25:58;;;;;;;33.15;26.15;;;;;;;13.67;100.00;101372.91;5028845;28;20382;-77
2023/05/22 02:28:24;;;;;;;31.63;27.15;;;;;;;13.64;100.00;101367.84;5028363;28;20111;-77
2023/05/22 02:30:49;;;;;;;34.28;27.33;;;;;;;13.60;100.00;101366.38;5044011;28;20053;-77
2023/05/22 02:33:16;;;;;;;34.60;26.60;;;;;;;13.64;100.00;101362.56;5029406;28;20068;-77
2023/05/22 02:35:42;;;;;;;35.25;25.85;;;;;;;13.65;100.00;101363.41;5026954;28;20029;-77
2023/05/22 02:38:08;;;;;;;35.10;27.30;;;;;;;13.61;100.00;101362.81;5028227;28;20079;-77
2023/05/22 02:40:34;;;;;;;35.50;26.90;;;;;;;13.57;100.00;101356.06;5012727;28;20120;-77
2023/05/22 02:43:12;;;;;;;31.73;25.92;;;;;;;13.58;100.00;101363.03;5028782;28;20468;-77
2023/05/22 02:45:37;;;;;;;33.22;27.35;;;;;;;13.55;100.00;101357.97;5027982;28;20075;-77
2023/05/22 02:48:03;;;;;;;35.58;27.85;;;;;;;13.58;100.00;101360.38;5029029;28;20018;-75
2023/05/22 02:50:28;;;;;;;34.65;26.48;;;;;;;13.57;100.00;101357.84;5029060;28;20026;-75
2023/05/22 02:52:54;;;;;;;32.63;26.40;;;;;;;13.60;100.00;101361.09;5028461;28;20025;-77
2023/05/22 02:55:19;;;;;;;34.88;27.70;;;;;;;13.56;100.00;101358.81;5028136;28;20483;-77
2023/05/22 02:57:45;;;;;;;35.30;27.58;;;;;;;13.52;100.00;101355.56;5024240;28;20079;-77
2023/05/22 03:00:10;;;;;;;33.78;26.73;;;;;;;13.58;100.00;101355.09;5028495;28;20025;-76
2023/05/22 03:02:37;;;;;;;36.15;27.25;;;;;;;13.58;100.00;101351.59;5028555;28;20390;-77
2023/05/22 03:05:06;;;;;;;33.22;26.60;;;;;;;13.56;100.00;101348.25;5027673;28;20175;-75
2023/05/22 03:07:33;;;;;;;35.35;28.00;;;;;;;13.49;100.00;101348.72;5028966;28;20389;-75
2023/05/22 03:09:58;;;;;;;37.47;28.45;;;;;;;13.50;100.00;101354.84;5028854;28;20022;-77
2023/05/22 03:12:24;;;;;;;36.65;27.27;;;;;;;13.52;100.00;101358.22;5028444;28;20026;-77
2023/05/22 03:14:49;;;;;;;31.45;26.98;;;;;;;13.48;100.00;101352.31;5028844;28;20026;-77
2023/05/22 03:17:14;;;;;;;36.90;27.58;;;;;;;13.45;100.00;101351.72;5027961;28;20025;-77
2023/05/22 03:19:40;;;;;;;36.42;27.30;;;;;;;13.48;100.00;101351.50;5028092;28;20456;-75
2023/05/22 03:22:06;;;;;;;30.63;27.33;;;;;;;13.40;100.00;101348.59;5029632;28;20026;-77
2023/05/22 03:24:31;;;;;;;33.42;28.13;;;;;;;13.42;100.00;101336.94;5029439;28;20021;-77
2023/05/22 03:26:58;;;;;;;37.35;27.58;;;;;;;13.37;100.00;101340.91;5029126;28;20029;-77
2023/05/22 03:29:24;;;;;;;34.10;27.42;;;;;;;13.36;100.00;101341.88;5027703;28;20030;-77
2023/05/22 03:31:49;;;;;;;36.13;28.00;;;;;;;13.30;100.00;101345.84;5040316;28;20032;-77
2023/05/22 03:34:15;;;;;;;34.92;28.17;;;;;;;13.28;100.00;101339.00;5028091;28;20026;-77
2023/05/22 03:36:40;;;;;;;37.10;28.98;;;;;;;13.23;100.00;101342.00;5029062;28;20025;-77
2023/05/22 03:39:06;;;;;;;39.90;28.58;;;;;;;13.25;100.00;101344.53;5045516;28;20029;-77
2023/05/22 03:41:31;;;;;;;35.80;28.30;;;;;;;13.19;100.00;101343.16;5030245;28;20033;-75
2023/05/22 03:43:57;;;;;;;34.97;28.42;;;;;;;13.15;100.00;101337.25;5046301;28;20112;-75
2023/05/22 03:46:22;;;;;;;37.17;29.55;;;;;;;13.15;100.00;101339.88;5030286;28;20025;-77
2023/05/22 03:48:50;;;;;;;39.40;30.38;;;;;;;13.10;100.00;101342.03;5029987;28;20021;-77
2023/05/22 03:51:16;;;;;;;38.00;29.55;;;;;;;13.09;100.00;101340.38;5030843;28;20025;-77
2023/05/22 03:53:41;;;;;;;38.20;29.00;;;;;;;13.08;100.00;101346.59;5031904;28;20025;-77
2023/05/22 03:56:11;;;;;;;36.67;28.60;;;;;;;13.08;100.00;101343.13;5030557;28;20021;-77
2023/05/22 03:58:36;;;;;;;42.05;30.35;;;;;;;13.05;100.00;101338.91;5032249;28;20033;-77
2023/05/22 04:01:03;;;;;;;39.03;28.58;;;;;;;13.08;100.00;101343.97;5031186;28;20021;-77
2023/05/22 04:03:28;;;;;;;37.92;28.80;;;;;;;13.02;100.00;101331.22;5040112;28;20095;-77
2023/05/22 04:05:55;;;;;;;40.97;29.17;;;;;;;13.01;100.00;101334.81;5030508;28;20049;-77
2023/05/22 04:08:21;;;;;;;39.95;29.85;;;;;;;12.98;100.00;101331.59;5031801;28;20482;-77
2023/05/22 04:10:47;;;;;;;40.75;29.48;;;;;;;12.97;100.00;101336.03;5031807;28;20033;-77
2023/05/22 04:13:15;;;;;;;39.83;28.95;;;;;;;12.96;100.00;101328.22;5031042;28;20097;-77
2023/05/22 04:15:43;;;;;;;37.25;29.05;;;;;;;12.99;100.00;101330.63;5046886;28;20029;-75
2023/05/22 04:18:09;;;;;;;41.10;29.70;;;;;;;12.96;100.00;101329.06;5032477;28;20548;-77
2023/05/22 04:20:34;;;;;;;38.75;30.20;;;;;;;12.94;100.00;101327.50;5027465;28;20037;-77
2023/05/22 04:23:03;;;;;;;40.22;30.33;;;;;;;12.97;100.00;101333.38;5030438;28;20512;-77
2023/05/22 04:25:28;;;;;;;42.90;31.25;;;;;;;12.98;100.00;101335.06;5030505;28;20029;-76
2023/05/22 04:27:54;;;;;;;42.03;30.33;;;;;;;12.98;100.00;101340.34;5030636;28;20087;-77
2023/05/22 04:30:20;;;;;;;42.22;29.85;;;;;;;13.02;100.00;101344.44;5032468;28;20051;-77
2023/05/22 04:32:46;;;;;;;41.40;30.58;;;;;;;13.02;100.00;101344.44;5032678;28;20448;-77
2023/05/22 04:35:11;;;;;;;41.83;30.10;;;;;;;13.07;100.00;101350.22;5030935;28;20032;-77
2023/05/22 04:37:44;;;;;;;43.33;32.47;;;;;;;13.02;100.00;101352.34;5029462;28;20128;-77
2023/05/22 04:40:10;;;;;;;44.45;33.80;;;;;;;12.99;100.00;101355.25;5026956;28;20555;-77
2023/05/22 04:42:37;;;;;;;46.17;33.85;;;;;;;12.98;100.00;101353.56;5030426;28;20022;-77
2023/05/22 04:45:06;;;;;;;43.08;32.97;;;;;;;13.02;100.00;101365.56;5030443;28;20104;-75
2023/05/22 04:47:37;;;;;;;40.25;33.17;;;;;;;13.05;100.00;101360.03;5025513;28;20033;-77
2023/05/22 04:50:02;;;;;;;44.92;33.60;;;;;;;13.05;100.00;101367.97;5029892;28;20052;-77
2023/05/22 04:52:28;;;;;;;40.05;32.63;;;;;;;13.12;100.00;101371.81;5045351;28;20485;-77
2023/05/22 04:54:54;;;;;;;42.08;32.97;;;;;;;13.14;100.00;101375.19;5031262;28;20041;-77
2023/05/22 04:57:25;;;;;;;40.15;32.50;;;;;;;13.13;100.00;101377.97;5025854;28;20950;-77
2023/05/22 04:59:53;;;;;;;40.08;30.85;;;;;;;13.18;100.00;101371.38;5030502;28;20037;-77
2023/05/22 05:02:19;;;;;;;43.03;31.73;;;;;;;13.20;100.00;101375.72;5029786;28;20035;-77
2023/05/22 05:04:45;;;;;;;38.70;30.45;;;;;;;13.29;100.00;101377.69;5030690;28;20053;-75
2023/05/22 05:07:16;;;;;;;39.60;30.73;;;;;;;13.28;100.00;101378.63;5029119;28;20430;-77
2023/05/22 05:09:41;;;;;;;44.38;32.72;;;;;;;13.25;100.00;101381.50;5029745;28;20022;-77
2023/05/22 05:12:07;;;;;;;42.67;31.75;;;;;;;13.38;100.00;101387.53;5024894;28;20028;-77
2023/05/22 05:14:32;;;;;;;47.72;32.10;;;;;;;13.38;100.00;101387.53;5031781;28;20040;-77
2023/05/22 05:16:58;;;;;;;44.28;31.55;;;;;;;13.43;100.00;101394.16;5013012;28;20032;-77
2023/05/22 05:19:23;;;;;;;45.97;32.90;;;;;;;13.46;100.00;101385.97;5028455;28;20088;-77
2023/05/22 05:21:49;;;;;;;40.78;30.63;;;;;;;13.51;100.00;101387.41;5030713;28;20417;-77
2023/05/22 05:24:17;;;;;;;45.65;31.17;;;;;;;13.57;100.00;101393.06;5030811;28;20026;-77
2023/05/22 05:26:43;;;;;;;41.78;31.88;;;;;;;13.53;100.00;101391.63;5029536;28;20079;-77
2023/05/22 05:29:08;;;;;;;43.17;31.65;;;;;;;13.61;100.00;101388.38;5009150;28;20021;-77
2023/05/22 05:31:33;;;;;;;44.90;32.55;;;;;;;13.65;100.00;101385.41;5028185;28;20425;-77
2023/05/22 05:34:01;;;;;;;45.35;32.15;;;;;;;13.69;100.00;101392.13;5030421;28;20026;-77
2023/05/22 05:36:28;;;;;;;46.55;33.70;;;;;;;13.74;100.00;101391.78;5029110;28;20025;-77
2023/05/22 05:38:53;;;;;;;49.05;33.15;;;;;;;13.78;100.00;101393.22;5030507;28;20080;-77
2023/05/22 05:41:20;;;;;;;50.65;34.67;;;;;;;13.77;100.00;101392.38;5025804;28;20037;-77
2023/05/22 05:43:45;;;;;;;43.55;32.38;;;;;;;13.90;100.00;101394.03;5020312;28;20108;-77
2023/05/22 05:46:11;;;;;;;47.83;32.97;;;;;;;13.99;100.00;101390.66;5018453;28;20025;-77
2023/05/22 05:48:36;;;;;;;44.88;31.60;;;;;;;14.05;100.00;101391.03;5006185;28;20028;-77
2023/05/22 05:51:02;;;;;;;49.75;32.95;;;;;;;14.14;100.00;101392.09;5027302;28;20064;-75
2023/05/22 05:53:27;;;;;;;47.53;33.58;;;;;;;14.18;100.00;101388.22;5028573;28;20080;-75
2023/05/22 05:55:53;;;;;;;43.25;32.67;;;;;;;14.24;100.00;101389.53;5028630;28;20037;-75
2023/05/22 05:58:18;;;;;;;42.72;32.50;;;;;;;14.31;100.00;101383.63;5029699;28;20832;-75
2023/05/22 06:00:44;;;;;;;54.17;34.03;;;;;;;14.29;100.00;101390.00;5029410;28;20549;-75
2023/05/22 06:03:09;;;;;;;44.50;32.17;;;;;;;14.43;100.00;101391.59;5022805;28;20371;-75
2023/05/22 06:05:34;;;;;;;51.55;34.75;;;;;;;14.39;100.00;101397.06;5028888;28;20165;-75
2023/05/22 06:08:00;;;;;;;41.03;32.95;;;;;;;14.51;100.00;101400.59;5029422;28;20030;-75
2023/05/22 06:10:25;;;;;;;48.25;33.38;;;;;;;14.59;100.00;101394.66;5029390;28;20025;-76
2023/05/22 06:12:50;;;;;;;45.60;33.35;;;;;;;14.68;100.00;101391.25;5011430;28;20028;-76
2023/05/22 06:15:16;;;;;;;41.78;32.90;;;;;;;14.74;100.00;101398.69;5028011;28;20394;-75
2023/05/22 06:17:42;;;;;;;46.25;33.28;;;;;;;14.83;100.00;101405.03;5012520;28;20116;-75
2023/05/22 06:20:07;;;;;;;52.67;34.45;;;;;;;14.90;100.00;101406.22;5024384;28;20386;-75
2023/05/22 06:22:33;;;;;;;46.17;33.47;;;;;;;14.96;100.00;101406.53;5029597;28;20479;-75
2023/05/22 06:24:58;;;;;;;45.33;33.55;;;;;;;14.96;100.00;101400.41;5029751;28;20029;-76
2023/05/22 06:27:28;;;;;;;45.88;33.70;;;;;;;15.05;100.00;101407.56;5029847;28;20030;-76
2023/05/22 06:29:54;;;;;;;45.95;35.13;;;;;;;14.95;100.00;101407.50;5024598;28;20351;-77
2023/05/22 06:32:20;;;;;;;50.38;35.88;;;;;;;14.98;100.00;101407.25;5028892;28;20043;-77
2023/05/22 06:34:46;;;;;;;52.97;36.95;;;;;;;14.98;100.00;101420.50;5028561;28;20033;-78
2023/05/22 06:37:34;;;;;;;49.65;37.50;;;;;;;15.11;100.00;101415.00;5020765;28;20030;-77
2023/05/22 06:40:03;;;;;;;51.13;38.63;;;;;;;15.13;100.00;101417.53;5026398;28;20049;-77
2023/05/22 06:42:30;;;;;;;58.55;42.10;;;;;;;15.15;100.00;101415.59;5010266;28;20099;-77
2023/05/22 06:44:55;;;;;;;60.08;43.78;;;;;;;15.22;100.00;101425.56;5026259;28;20482;-76
2023/05/22 06:47:23;;;;;;;68.05;44.15;;;;;;;15.31;100.00;101423.94;5027168;28;20032;-75
2023/05/22 06:49:49;;;;;;;66.13;46.65;;;;;;;15.41;100.00;101427.50;5022384;28;20029;-77
2023/05/22 06:52:14;;;;;;;70.15;47.55;;;;;;;15.46;100.00;101425.28;5021479;28;20022;-78
2023/05/22 06:54:41;;;;;;;72.93;47.85;;;;;;;15.48;100.00;101428.66;5027446;28;20025;-77
2023/05/22 06:57:07;;;;;;;70.20;47.42;;;;;;;15.48;100.00;101423.34;5011122;28;20032;-77
2023/05/22 06:59:33;;;;;;;68.00;47.05;;;;;;;15.50;100.00;101426.69;5028563;28;20025;-77
2023/05/22 07:01:58;;;;;;;72.05;48.45;;;;;;;15.59;100.00;101428.59;5028757;28;20026;-77
2023/05/22 07:04:23;;;;;;;74.65;49.60;;;;;;;15.69;100.00;101433.97;5027914;28;20056;-77
2023/05/22 07:06:49;;;;;;;73.45;50.20;;;;;;;15.64;100.00;101436.19;5011271;28;20029;-77
2023/05/22 07:09:14;;;;;;;74.90;48.65;;;;;;;15.63;100.00;101438.00;5025468;28;20381;-77
2023/05/22 07:11:42;;;;;;;76.97;50.50;;;;;;;15.51;100.00;101444.28;5027328;28;20029;-77
2023/05/22 07:14:08;;;;;;;82.38;51.00;;;;;;;15.55;100.00;101451.00;5032444;28;20125;-77
2023/05/22 07:16:35;;;;;;;80.25;51.08;;;;;;;15.59;100.00;101452.47;5015696;28;20108;-77
2023/05/22 07:19:02;;;;;;;78.50;51.22;;;;;;;15.60;100.00;101456.78;5025124;28;20112;-78
2023/05/22 07:21:30;;;;;;;77.68;51.97;;;;;;;15.69;100.00;101447.25;5032784;28;20036;-76
2023/05/22 07:23:56;;;;;;;75.65;50.88;;;;;;;15.79;100.00;101457.91;5031001;28;20112;-77
2023/05/22 07:26:21;;;;;;;79.88;52.38;;;;;;;15.82;100.00;101447.00;5028912;28;20121;-76
2023/05/22 07:28:47;;;;;;;79.60;51.88;;;;;;;15.97;100.00;101450.97;5032418;28;20509;-75
2023/05/22 07:31:13;;;;;;;74.25;52.28;;;;;;;16.05;100.00;101448.53;5033004;28;20040;-76
2023/05/22 07:33:38;;;;;;;81.63;52.58;;;;;;;16.08;100.00;101453.56;5032438;28;20017;-76
2023/05/22 07:36:04;;;;;;;79.57;51.17;;;;;;;16.19;100.00;101456.09;5014084;28;20045;-76
2023/05/22 07:38:29;;;;;;;74.65;51.55;;;;;;;16.27;100.00;101448.28;5033286;28;20470;-76
2023/05/22 07:40:55;;;;;;;76.35;51.58;;;;;;;16.44;99.80;101451.28;5031813;28;20083;-76
2023/05/22 07:43:20;;;;;;;84.28;52.70;;;;;;;16.41;99.67;101456.84;5033246;28;20026;-75
2023/05/22 07:45:46;;;;;;;84.80;52.00;;;;;;;16.58;98.86;101464.19;5033265;28;20025;-76
2023/05/22 07:48:11;;;;;;;87.43;54.88;;;;;;;16.59;99.21;101455.22;5032080;28;20095;-75
2023/05/22 07:50:36;;;;;;;75.57;49.88;;;;;;;16.69;98.56;101458.75;5031412;28;20524;-75
2023/05/22 07:53:03;;;;;;;76.82;51.63;;;;;;;16.76;98.77;101459.88;5032075;28;20021;-75
2023/05/22 07:55:29;;;;;;;81.22;52.05;;;;;;;16.89;98.16;101460.47;5032209;28;20398;-76
2023/05/22 07:57:55;;;;;;;82.35;53.50;;;;;;;16.92;97.75;101467.31;5030926;28;20021;-76
2023/05/22 08:00:21;;;;;;;82.53;52.95;;;;;;;16.98;97.18;101458.78;5031987;28;20057;-75
2023/05/22 08:02:46;;;;;;;81.65;54.05;;;;;;;16.97;97.23;101462.44;5013523;28;20029;-75
2023/05/22 08:05:12;;;;;;;81.43;53.15;;;;;;;17.15;96.26;101470.53;5013673;28;20588;-75
2023/05/22 08:07:40;;;;;;;82.53;53.08;;;;;;;17.15;96.49;101467.88;5030023;28;20040;-75
2023/05/22 08:10:12;;;;;;;73.45;52.45;;;;;;;17.17;96.18;101471.22;5031634;28;20029;-75
2023/05/22 08:12:38;;;;;;;79.97;53.72;;;;;;;17.33;95.97;101466.19;5032001;28;20474;-75
2023/05/22 08:15:04;;;;;;;84.18;54.17;;;;;;;17.44;95.37;101466.03;5030926;28;20030;-76
2023/05/22 08:17:32;;;;;;;83.68;56.20;;;;;;;17.48;94.78;101464.75;5014486;28;20544;-75
2023/05/22 08:19:58;;;;;;;88.10;56.25;;;;;;;17.57;94.57;101459.56;5014129;28;20124;-75
2023/05/22 08:22:23;;;;;;;88.00;56.08;;;;;;;17.67;94.27;101458.59;5013340;28;20029;-76
2023/05/22 08:24:48;;;;;;;85.28;55.67;;;;;;;17.88;93.60;101463.69;5025257;28;20102;-76
2023/05/22 08:27:14;;;;;;;85.50;56.88;;;;;;;17.90;92.98;101460.91;5020101;28;20394;-76
2023/05/22 08:29:39;;;;;;;81.35;56.55;;;;;;;17.97;92.72;101459.31;5012452;28;20423;-76
2023/05/22 08:32:05;;;;;;;76.53;56.25;;;;;;;18.09;91.51;101456.34;5015409;28;20025;-75
2023/05/22 08:34:31;;;;;;;75.68;55.92;;;;;;;18.25;90.88;101461.03;5030079;28;20032;-76
2023/05/22 08:37:02;;;;;;;80.22;55.13;;;;;;;18.27;90.36;101461.72;5031879;28;20029;-75
2023/05/22 08:39:27;;;;;;;84.68;56.72;;;;;;;18.25;90.08;101458.34;5027248;28;20436;-76
2023/05/22 08:41:53;;;;;;;79.60;56.50;;;;;;;18.42;90.47;101456.75;5015559;28;20033;-82
2023/05/22 08:44:19;;;;;;;82.63;57.50;;;;;;;18.39;88.88;101462.34;5023446;28;20033;-75
2023/05/22 08:46:45;;;;;;;86.53;58.08;;;;;;;18.48;88.34;101458.81;5032062;28;20033;-76
2023/05/22 08:49:11;;;;;;;82.93;56.65;;;;;;;18.59;87.35;101457.75;5012570;28;20028;-76
2023/05/22 08:51:41;;;;;;;82.13;56.33;;;;;;;18.71;87.55;101464.56;5031314;28;20478;-75
2023/05/22 08:54:07;;;;;;;81.57;56.97;;;;;;;18.88;86.17;101457.56;5031488;28;20477;-75
2023/05/22 08:56:34;;;;;;;83.65;55.10;;;;;;;19.14;85.27;101457.63;5030331;28;20021;-75
2023/05/22 08:59:03;;;;;;;76.47;53.20;;;;;;;19.46;85.01;101457.88;5028283;28;20033;-74
2023/05/22 09:01:32;;;;;;;77.05;54.70;;;;;;;19.69;82.17;101455.56;5028619;28;20038;-74
2023/05/22 09:04:00;;;;;;;73.00;53.72;;;;;;;19.87;81.99;101456.31;5023787;28;20025;-74
2023/05/22 09:06:27;;;;;;;67.07;50.95;;;;;;;19.85;79.81;101452.97;5025534;28;20493;-74
2023/05/22 09:08:55;;;;;;;66.90;50.45;;;;;;;20.24;78.73;101450.66;5012953;28;20132;-75
2023/05/22 09:11:20;;;;;;;64.20;49.80;;;;;;;20.62;77.77;101457.31;5027927;28;20604;-74
2023/05/22 09:13:45;;;;;;;63.67;47.83;;;;;;;20.99;74.86;101448.00;5028767;28;20044;-74
2023/05/22 09:16:12;;;;;;;64.30;47.78;;;;;;;20.86;74.42;101453.00;5028133;28;20048;-75
2023/05/22 09:18:41;;;;;;;67.13;48.55;;;;;;;20.74;75.07;101448.97;5029802;28;20037;-75
2023/05/22 09:21:07;;;;;;;63.78;46.90;;;;;;;20.77;74.67;101462.00;5030269;28;20033;-74
2023/05/22 09:23:33;;;;;;;60.47;45.00;;;;;;;20.80;74.26;101459.00;5029408;28;20457;-75
2023/05/22 09:26:04;;;;;;;61.42;45.03;;;;;;;20.74;74.10;101459.66;5029467;28;20064;-75
2023/05/22 09:28:34;;;;;;;62.42;46.17;;;;;;;20.87;75.97;101455.53;5029435;28;20036;-75
2023/05/22 09:31:00;;;;;;;58.08;45.00;;;;;;;20.87;74.95;101450.16;5028461;28;20031;-73
2023/05/22 09:33:26;;;;;;;56.47;44.28;;;;;;;20.80;75.01;101459.00;5030252;28;20037;-75
2023/05/22 09:35:52;;;;;;;52.58;43.90;;;;;;;21.23;74.22;101450.72;5025634;28;20063;-74
2023/05/22 09:38:20;;;;;;;55.00;43.22;;;;;;;21.49;72.53;101444.31;5030404;28;20030;-74
2023/05/22 09:40:51;;;;;;;50.83;41.78;;;;;;;21.35;72.84;101447.69;5027567;28;20072;-75
2023/05/22 09:43:17;;;;;;;50.30;40.88;;;;;;;21.21;73.47;101450.03;5027905;28;20037;-75
2023/05/22 09:45:42;;;;;;;45.95;39.55;;;;;;;21.31;72.54;101446.34;5027769;28;20025;-75
2023/05/22 09:48:08;;;;;;;50.20;40.05;;;;;;;21.26;72.82;101449.53;5028534;28;20159;-75
2023/05/22 09:50:38;;;;;;;52.10;40.85;;;;;;;20.95;73.28;101441.31;5008923;28;20025;-74
2023/05/22 09:53:04;;;;;;;51.95;40.38;;;;;;;21.07;73.67;101433.78;5025803;28;20180;-76
2023/05/22 09:55:31;;;;;;;46.88;38.05;;;;;;;21.36;73.90;101435.97;5011545;28;20417;-74
2023/05/22 09:57:57;;;;;;;47.35;38.08;;;;;;;21.51;72.21;101436.94;5028799;28;20482;-74
2023/05/22 10:00:27;;;;;;;43.65;37.15;;;;;;;21.66;72.07;101439.78;5027957;28;20394;-74
2023/05/22 10:02:57;;;;;;;45.20;37.20;;;;;;;21.88;71.02;101434.50;5027488;28;20025;-74
2023/05/22 10:05:30;;;;;;;43.92;36.00;;;;;;;22.21;69.71;101434.41;5025220;28;20112;-74
2023/05/22 10:08:00;;;;;;;;;;;;;;;22.61;72.98;101437.88;5026519;28;20029;-73
2023/05/22 10:10:25;;;;;;;44.30;34.97;;;;;;;22.50;68.76;101433.75;5027853;28;19913;-72
2023/05/22 10:13:03;;;;;;;42.15;35.22;;;;;;;22.51;70.34;101444.31;5027495;28;20359;-73
2023/05/22 10:15:29;;;;;;;48.40;34.97;;;;;;;22.68;67.69;101430.78;5000567;28;20033;-74
2023/05/22 10:17:57;;;;;;;41.42;33.50;;;;;;;22.72;68.23;101437.44;5005357;28;20386;-74
2023/05/22 10:20:25;;;;;;;39.97;34.55;;;;;;;22.81;67.44;101431.03;5022387;28;20044;-74
2023/05/22 10:22:52;;;;;;;40.58;34.33;;;;;;;22.96;67.13;101436.47;5026085;28;20183;-74
2023/05/22 10:25:22;;;;;;;39.53;33.25;;;;;;;23.50;66.01;101426.41;5024675;28;20033;-74
2023/05/22 10:27:51;;;;;;;40.55;33.38;;;;;;;23.65;65.19;101435.34;5026499;28;20121;-74
2023/05/22 10:30:32;;;;;;;41.25;33.22;;;;;;;23.90;63.34;101430.53;5016768;28;20029;-74
2023/05/22 10:33:13;;;;;;;39.20;32.05;;;;;;;23.96;64.53;101423.56;5024322;28;20116;-74
2023/05/22 10:35:56;;;;;;;37.15;30.33;;;;;;;24.30;63.55;101426.50;5032397;28;20017;-75
2023/05/22 10:38:46;;;;;;;37.95;30.77;;;;;;;24.27;62.46;101423.34;5030775;28;20477;-75
2023/05/22 10:41:12;;;;;;;35.83;30.45;;;;;;;24.55;61.76;101412.72;5033071;28;20021;-75
2023/05/22 10:43:43;;;;;;;36.03;29.67;;;;;;;24.52;61.03;101416.63;5046471;28;20110;-75
2023/05/22 10:46:11;;;;;;;37.55;30.27;;;;;;;24.56;59.62;101411.69;5047957;28;20631;-76
2023/05/22 10:48:38;;;;;;;33.40;27.92;;;;;;;24.51;61.34;101414.13;5045978;28;20158;-74
2023/05/22 10:51:06;;;;;;;37.30;28.52;;;;;;;24.79;59.04;101406.94;5008793;28;20120;-75
2023/05/22 10:53:33;;;;;;;36.78;28.85;;;;;;;25.09;59.51;101413.03;5027784;28;20026;-75
2023/05/22 10:56:13;;;;;;;38.45;28.95;;;;;;;24.92;61.45;101412.47;5027538;28;20402;-75
2023/05/22 10:58:43;;;;;;;35.80;30.33;;;;;;;24.16;61.48;101408.53;5027451;28;20037;-74
2023/05/22 11:01:11;;;;;;;39.33;28.30;;;;;;;24.26;61.85;101410.91;5010334;28;20387;-74
2023/05/22 11:03:58;;;;;;;33.58;29.00;;;;;;;24.31;62.89;101403.97;5010238;28;20028;-74
2023/05/22 11:06:42;;;;;;;36.50;30.10;;;;;;;24.66;62.75;101407.66;5028363;28;20042;-74